sensor_id;sensor_type;location;lat;lon;timestamp;temperature;humidity
46283;DHT22;32017;43.700;11.820;2023-02-23T00:02:00;7.50;99.90
46283;DHT22;32017;43.700;11.820;2023-02-23T00:04:26;7.40;99.90
46283;DHT22;32017;43.700;11.820;2023-02-23T00:06:45;7.40;99.90
46283;DHT22;32017;43.700;11.820;2023-02-23T00:09:06;7.50;99.90
46283;DHT22;32017;43.700;11.820;2023-02-23T00:11:34;7.60;99.90
46283;DHT22;32017;43.700;11.820;2023-02-23T00:13:54;7.60;99.90
46283;DHT22;32017;43.700;11.820;2023-02-23T00:16:22;7.50;99.90
46283;DHT22;32017;43.700;11.820;2023-02-23T00:18:44;7.50;99.90
46283;DHT22;32017;43.700;11.820;2023-02-23T00:21:06;7.50;99.90
46283;DHT22;32017;43.700;11.820;2023-02-23T00:23:27;7.40;99.90
46283;DHT22;32017;43.700;11.820;2023-02-23T00:25:47;7.20;99.90
46283;DHT22;32017;43.700;11.820;2023-02-23T00:28:08;7.20;99.90
46283;DHT22;32017;43.700;11.820;2023-02-23T00:30:28;7.30;99.90
46283;DHT22;32017;43.700;11.820;2023-02-23T00:32:49;7.30;99.90
46283;DHT22;32017;43.700;11.820;2023-02-23T00:35:10;7.30;99.90
46283;DHT22;32017;43.700;11.820;2023-02-23T00:37:37;7.30;99.90
46283;DHT22;32017;43.700;11.820;2023-02-23T00:39:57;7.40;99.90
46283;DHT22;32017;43.700;11.820;2023-02-23T00:42:18;7.20;99.90
46283;DHT22;32017;43.700;11.820;2023-02-23T00:44:38;6.80;99.90
46283;DHT22;32017;43.700;11.820;2023-02-23T00:47:00;6.60;99.90
46283;DHT22;32017;43.700;11.820;2023-02-23T00:49:21;6.50;99.90
46283;DHT22;32017;43.700;11.820;2023-02-23T00:51:43;6.50;99.90
46283;DHT22;32017;43.700;11.820;2023-02-23T00:54:03;6.50;99.90
46283;DHT22;32017;43.700;11.820;2023-02-23T00:56:24;6.50;99.90
46283;DHT22;32017;43.700;11.820;2023-02-23T00:58:44;6.60;99.90
46283;DHT22;32017;43.700;11.820;2023-02-23T01:01:11;6.70;99.90
46283;DHT22;32017;43.700;11.820;2023-02-23T01:03:32;6.80;99.90
46283;DHT22;32017;43.700;11.820;2023-02-23T01:05:52;6.90;99.90
46283;DHT22;32017;43.700;11.820;2023-02-23T01:08:13;7.00;99.90
46283;DHT22;32017;43.700;11.820;2023-02-23T01:10:38;7.10;99.90
46283;DHT22;32017;43.700;11.820;2023-02-23T01:12:58;7.10;99.90
46283;DHT22;32017;43.700;11.820;2023-02-23T01:15:19;7.10;99.90
46283;DHT22;32017;43.700;11.820;2023-02-23T01:17:41;7.20;99.90
46283;DHT22;32017;43.700;11.820;2023-02-23T01:20:01;7.10;99.90
46283;DHT22;32017;43.700;11.820;2023-02-23T01:22:26;7.10;99.90
46283;DHT22;32017;43.700;11.820;2023-02-23T01:24:46;7.00;99.90
46283;DHT22;32017;43.700;11.820;2023-02-23T01:27:07;6.90;99.90
46283;DHT22;32017;43.700;11.820;2023-02-23T01:29:27;6.90;99.90
46283;DHT22;32017;43.700;11.820;2023-02-23T01:31:48;6.90;99.90
46283;DHT22;32017;43.700;11.820;2023-02-23T01:34:12;6.90;99.90
46283;DHT22;32017;43.700;11.820;2023-02-23T01:36:36;6.80;99.90
46283;DHT22;32017;43.700;11.820;2023-02-23T01:38:57;6.70;99.90
46283;DHT22;32017;43.700;11.820;2023-02-23T01:41:20;6.60;99.90
46283;DHT22;32017;43.700;11.820;2023-02-23T01:46:23;6.60;99.90
46283;DHT22;32017;43.700;11.820;2023-02-23T01:48:43;6.40;99.90
46283;DHT22;32017;43.700;11.820;2023-02-23T01:51:12;6.40;99.90
46283;DHT22;32017;43.700;11.820;2023-02-23T01:53:36;6.30;99.90
46283;DHT22;32017;43.700;11.820;2023-02-23T01:56:04;6.30;99.90
46283;DHT22;32017;43.700;11.820;2023-02-23T01:58:31;6.30;99.90
46283;DHT22;32017;43.700;11.820;2023-02-23T02:00:56;6.40;99.90
46283;DHT22;32017;43.700;11.820;2023-02-23T02:03:41;6.40;99.90
46283;DHT22;32017;43.700;11.820;2023-02-23T02:06:03;6.50;99.90
46283;DHT22;32017;43.700;11.820;2023-02-23T02:08:23;6.50;99.90
46283;DHT22;32017;43.700;11.820;2023-02-23T02:10:46;6.50;99.90
46283;DHT22;32017;43.700;11.820;2023-02-23T02:13:08;6.50;99.90
46283;DHT22;32017;43.700;11.820;2023-02-23T02:15:31;6.50;99.90
46283;DHT22;32017;43.700;11.820;2023-02-23T02:48:02;6.50;99.90
46283;DHT22;32017;43.700;11.820;2023-02-23T02:50:41;6.50;99.90
46283;DHT22;32017;43.700;11.820;2023-02-23T02:53:07;6.50;99.90
46283;DHT22;32017;43.700;11.820;2023-02-23T02:55:29;6.50;99.90
46283;DHT22;32017;43.700;11.820;2023-02-23T02:57:57;6.50;99.90
46283;DHT22;32017;43.700;11.820;2023-02-23T03:00:27;6.40;99.90
46283;DHT22;32017;43.700;11.820;2023-02-23T03:03:33;6.40;99.90
46283;DHT22;32017;43.700;11.820;2023-02-23T03:06:12;6.40;99.90
46283;DHT22;32017;43.700;11.820;2023-02-23T03:11:43;6.50;99.90
46283;DHT22;32017;43.700;11.820;2023-02-23T03:14:40;6.50;99.90
46283;DHT22;32017;43.700;11.820;2023-02-23T03:23:15;6.50;99.90
46283;DHT22;32017;43.700;11.820;2023-02-23T03:29:34;6.50;99.90
46283;DHT22;32017;43.700;11.820;2023-02-23T03:34:40;6.60;99.90
46283;DHT22;32017;43.700;11.820;2023-02-23T03:37:34;6.50;99.90
46283;DHT22;32017;43.700;11.820;2023-02-23T03:40:24;6.50;99.90
46283;DHT22;32017;43.700;11.820;2023-02-23T03:43:08;6.50;99.90
46283;DHT22;32017;43.700;11.820;2023-02-23T03:45:48;6.40;99.90
46283;DHT22;32017;43.700;11.820;2023-02-23T03:48:27;6.40;99.90
46283;DHT22;32017;43.700;11.820;2023-02-23T03:51:10;6.40;99.90
46283;DHT22;32017;43.700;11.820;2023-02-23T03:53:55;6.40;99.90
46283;DHT22;32017;43.700;11.820;2023-02-23T03:56:40;6.30;99.90
46283;DHT22;32017;43.700;11.820;2023-02-23T03:59:24;6.30;99.90
46283;DHT22;32017;43.700;11.820;2023-02-23T04:02:06;6.30;99.90
46283;DHT22;32017;43.700;11.820;2023-02-23T04:04:46;6.20;99.90
46283;DHT22;32017;43.700;11.820;2023-02-23T04:07:28;6.20;99.90
46283;DHT22;32017;43.700;11.820;2023-02-23T04:10:07;6.10;99.90
46283;DHT22;32017;43.700;11.820;2023-02-23T04:12:59;6.10;99.90
46283;DHT22;32017;43.700;11.820;2023-02-23T04:15:49;6.10;99.90
46283;DHT22;32017;43.700;11.820;2023-02-23T04:18:13;6.10;99.90
46283;DHT22;32017;43.700;11.820;2023-02-23T04:20:33;6.10;99.90
46283;DHT22;32017;43.700;11.820;2023-02-23T04:22:54;6.10;99.90
46283;DHT22;32017;43.700;11.820;2023-02-23T04:25:15;6.00;99.90
46283;DHT22;32017;43.700;11.820;2023-02-23T04:27:36;6.00;99.90
46283;DHT22;32017;43.700;11.820;2023-02-23T04:29:56;6.00;99.90
46283;DHT22;32017;43.700;11.820;2023-02-23T04:32:18;6.00;99.90
46283;DHT22;32017;43.700;11.820;2023-02-23T04:34:39;5.90;99.90
46283;DHT22;32017;43.700;11.820;2023-02-23T04:36:59;6.00;99.90
46283;DHT22;32017;43.700;11.820;2023-02-23T04:39:19;6.00;99.90
46283;DHT22;32017;43.700;11.820;2023-02-23T04:41:41;6.00;99.90
46283;DHT22;32017;43.700;11.820;2023-02-23T04:44:00;5.90;99.90
46283;DHT22;32017;43.700;11.820;2023-02-23T04:46:23;6.00;99.90
46283;DHT22;32017;43.700;11.820;2023-02-23T04:48:43;6.00;99.90
46283;DHT22;32017;43.700;11.820;2023-02-23T04:51:03;6.10;99.90
46283;DHT22;32017;43.700;11.820;2023-02-23T04:53:23;6.00;99.90
46283;DHT22;32017;43.700;11.820;2023-02-23T04:55:43;6.00;99.90
46283;DHT22;32017;43.700;11.820;2023-02-23T04:58:07;6.10;99.90
46283;DHT22;32017;43.700;11.820;2023-02-23T05:00:32;6.20;99.90
46283;DHT22;32017;43.700;11.820;2023-02-23T05:02:52;6.20;99.90
46283;DHT22;32017;43.700;11.820;2023-02-23T05:05:12;6.30;99.90
46283;DHT22;32017;43.700;11.820;2023-02-23T05:07:32;6.30;99.90
46283;DHT22;32017;43.700;11.820;2023-02-23T05:09:52;6.40;99.90
46283;DHT22;32017;43.700;11.820;2023-02-23T05:12:13;6.40;99.90
46283;DHT22;32017;43.700;11.820;2023-02-23T05:14:33;6.30;99.90
46283;DHT22;32017;43.700;11.820;2023-02-23T05:16:54;6.30;99.90
46283;DHT22;32017;43.700;11.820;2023-02-23T05:19:14;6.30;99.90
46283;DHT22;32017;43.700;11.820;2023-02-23T05:21:35;6.30;99.90
46283;DHT22;32017;43.700;11.820;2023-02-23T05:23:54;6.20;99.90
46283;DHT22;32017;43.700;11.820;2023-02-23T05:26:17;6.20;99.90
46283;DHT22;32017;43.700;11.820;2023-02-23T05:28:40;6.10;99.90
46283;DHT22;32017;43.700;11.820;2023-02-23T05:31:00;6.20;99.90
46283;DHT22;32017;43.700;11.820;2023-02-23T05:33:22;6.20;99.90
46283;DHT22;32017;43.700;11.820;2023-02-23T05:35:42;6.20;99.90
46283;DHT22;32017;43.700;11.820;2023-02-23T05:38:02;6.30;99.90
46283;DHT22;32017;43.700;11.820;2023-02-23T05:40:22;6.30;99.90
46283;DHT22;32017;43.700;11.820;2023-02-23T05:42:42;6.30;99.90
46283;DHT22;32017;43.700;11.820;2023-02-23T05:45:03;6.20;99.90
46283;DHT22;32017;43.700;11.820;2023-02-23T05:47:23;6.20;99.90
46283;DHT22;32017;43.700;11.820;2023-02-23T05:49:43;6.20;99.90
46283;DHT22;32017;43.700;11.820;2023-02-23T05:52:05;6.20;99.90
46283;DHT22;32017;43.700;11.820;2023-02-23T05:54:26;6.10;99.90
46283;DHT22;32017;43.700;11.820;2023-02-23T05:56:47;6.20;99.90
46283;DHT22;32017;43.700;11.820;2023-02-23T05:59:07;6.20;99.90
46283;DHT22;32017;43.700;11.820;2023-02-23T06:01:27;6.20;99.90
46283;DHT22;32017;43.700;11.820;2023-02-23T06:03:48;6.20;99.90
46283;DHT22;32017;43.700;11.820;2023-02-23T06:06:10;6.20;99.90
46283;DHT22;32017;43.700;11.820;2023-02-23T06:08:30;6.20;99.90
46283;DHT22;32017;43.700;11.820;2023-02-23T06:10:51;6.20;99.90
46283;DHT22;32017;43.700;11.820;2023-02-23T06:13:12;6.20;99.90
46283;DHT22;32017;43.700;11.820;2023-02-23T06:15:32;6.20;99.90
46283;DHT22;32017;43.700;11.820;2023-02-23T06:17:53;6.10;99.90
46283;DHT22;32017;43.700;11.820;2023-02-23T06:20:12;6.10;99.90
46283;DHT22;32017;43.700;11.820;2023-02-23T06:22:34;6.20;99.90
46283;DHT22;32017;43.700;11.820;2023-02-23T06:24:54;6.20;99.90
46283;DHT22;32017;43.700;11.820;2023-02-23T06:27:15;6.20;99.90
46283;DHT22;32017;43.700;11.820;2023-02-23T06:29:34;6.20;99.90
46283;DHT22;32017;43.700;11.820;2023-02-23T06:31:57;6.20;99.90
46283;DHT22;32017;43.700;11.820;2023-02-23T06:34:20;6.20;99.90
46283;DHT22;32017;43.700;11.820;2023-02-23T06:36:40;6.20;99.90
46283;DHT22;32017;43.700;11.820;2023-02-23T06:39:00;6.20;99.90
46283;DHT22;32017;43.700;11.820;2023-02-23T06:41:20;6.20;99.90
46283;DHT22;32017;43.700;11.820;2023-02-23T06:43:40;6.20;99.90
46283;DHT22;32017;43.700;11.820;2023-02-23T06:46:00;6.10;99.90
46283;DHT22;32017;43.700;11.820;2023-02-23T06:48:19;6.20;99.90
46283;DHT22;32017;43.700;11.820;2023-02-23T06:50:40;6.20;99.90
46283;DHT22;32017;43.700;11.820;2023-02-23T06:53:00;6.20;99.90
46283;DHT22;32017;43.700;11.820;2023-02-23T06:55:21;6.20;99.90
46283;DHT22;32017;43.700;11.820;2023-02-23T06:57:43;6.20;99.90
46283;DHT22;32017;43.700;11.820;2023-02-23T07:00:04;6.30;99.90
46283;DHT22;32017;43.700;11.820;2023-02-23T07:02:24;6.30;99.90
46283;DHT22;32017;43.700;11.820;2023-02-23T07:04:44;6.30;99.90
46283;DHT22;32017;43.700;11.820;2023-02-23T07:07:05;6.30;99.90
46283;DHT22;32017;43.700;11.820;2023-02-23T07:09:25;6.40;99.90
46283;DHT22;32017;43.700;11.820;2023-02-23T07:11:46;6.40;99.90
46283;DHT22;32017;43.700;11.820;2023-02-23T07:14:07;6.40;99.90
46283;DHT22;32017;43.700;11.820;2023-02-23T07:16:36;6.40;99.90
46283;DHT22;32017;43.700;11.820;2023-02-23T07:18:55;6.40;99.90
46283;DHT22;32017;43.700;11.820;2023-02-23T07:21:15;6.50;99.90
46283;DHT22;32017;43.700;11.820;2023-02-23T07:23:35;6.50;99.90
46283;DHT22;32017;43.700;11.820;2023-02-23T07:25:56;6.50;99.90
46283;DHT22;32017;43.700;11.820;2023-02-23T07:28:16;6.60;99.90
46283;DHT22;32017;43.700;11.820;2023-02-23T07:30:36;6.60;99.90
46283;DHT22;32017;43.700;11.820;2023-02-23T07:32:56;6.60;99.90
46283;DHT22;32017;43.700;11.820;2023-02-23T07:35:16;6.70;99.90
46283;DHT22;32017;43.700;11.820;2023-02-23T07:37:37;6.70;99.90
46283;DHT22;32017;43.700;11.820;2023-02-23T07:39:57;6.80;99.90
46283;DHT22;32017;43.700;11.820;2023-02-23T07:42:21;6.90;99.90
46283;DHT22;32017;43.700;11.820;2023-02-23T07:44:40;6.90;99.90
46283;DHT22;32017;43.700;11.820;2023-02-23T07:47:00;6.90;99.90
46283;DHT22;32017;43.700;11.820;2023-02-23T07:49:20;7.00;99.90
46283;DHT22;32017;43.700;11.820;2023-02-23T07:51:44;7.00;99.90
46283;DHT22;32017;43.700;11.820;2023-02-23T07:54:05;7.10;99.90
46283;DHT22;32017;43.700;11.820;2023-02-23T07:56:27;7.20;99.90
46283;DHT22;32017;43.700;11.820;2023-02-23T07:58:49;7.30;99.90
46283;DHT22;32017;43.700;11.820;2023-02-23T08:01:11;7.30;99.90
46283;DHT22;32017;43.700;11.820;2023-02-23T08:03:31;7.30;99.90
46283;DHT22;32017;43.700;11.820;2023-02-23T08:05:53;7.40;99.90
46283;DHT22;32017;43.700;11.820;2023-02-23T08:08:13;7.50;99.90
46283;DHT22;32017;43.700;11.820;2023-02-23T08:10:33;7.50;99.90
46283;DHT22;32017;43.700;11.820;2023-02-23T08:12:53;7.60;99.90
46283;DHT22;32017;43.700;11.820;2023-02-23T08:15:13;7.70;99.90
46283;DHT22;32017;43.700;11.820;2023-02-23T08:17:36;7.70;99.90
46283;DHT22;32017;43.700;11.820;2023-02-23T08:19:55;7.70;99.90
46283;DHT22;32017;43.700;11.820;2023-02-23T08:22:15;7.80;99.90
46283;DHT22;32017;43.700;11.820;2023-02-23T08:24:36;7.80;99.90
46283;DHT22;32017;43.700;11.820;2023-02-23T08:27:01;7.90;99.90
46283;DHT22;32017;43.700;11.820;2023-02-23T08:29:21;8.00;99.90
46283;DHT22;32017;43.700;11.820;2023-02-23T08:31:41;8.10;99.90
46283;DHT22;32017;43.700;11.820;2023-02-23T08:34:01;8.20;99.90
46283;DHT22;32017;43.700;11.820;2023-02-23T08:36:21;8.30;99.90
46283;DHT22;32017;43.700;11.820;2023-02-23T08:38:41;8.50;99.90
46283;DHT22;32017;43.700;11.820;2023-02-23T08:41:02;8.70;99.90
46283;DHT22;32017;43.700;11.820;2023-02-23T08:43:22;8.70;99.90
46283;DHT22;32017;43.700;11.820;2023-02-23T08:45:42;8.70;99.90
46283;DHT22;32017;43.700;11.820;2023-02-23T08:48:03;8.90;99.90
46283;DHT22;32017;43.700;11.820;2023-02-23T08:50:23;8.90;99.90
46283;DHT22;32017;43.700;11.820;2023-02-23T08:52:47;8.90;99.90
46283;DHT22;32017;43.700;11.820;2023-02-23T08:55:08;8.80;99.90
46283;DHT22;32017;43.700;11.820;2023-02-23T08:57:36;8.90;99.90
46283;DHT22;32017;43.700;11.820;2023-02-23T08:59:56;8.90;99.90
46283;DHT22;32017;43.700;11.820;2023-02-23T09:02:16;9.00;99.90
46283;DHT22;32017;43.700;11.820;2023-02-23T09:04:35;9.20;99.90
46283;DHT22;32017;43.700;11.820;2023-02-23T09:06:56;9.20;99.90
46283;DHT22;32017;43.700;11.820;2023-02-23T09:09:16;9.20;99.90
46283;DHT22;32017;43.700;11.820;2023-02-23T09:11:36;9.20;99.90
46283;DHT22;32017;43.700;11.820;2023-02-23T09:13:56;9.30;99.90
46283;DHT22;32017;43.700;11.820;2023-02-23T09:16:16;9.40;99.90
46283;DHT22;32017;43.700;11.820;2023-02-23T09:18:36;9.50;99.90
46283;DHT22;32017;43.700;11.820;2023-02-23T09:20:58;9.50;99.90
46283;DHT22;32017;43.700;11.820;2023-02-23T09:23:18;9.50;99.90
46283;DHT22;32017;43.700;11.820;2023-02-23T09:25:41;9.70;99.90
46283;DHT22;32017;43.700;11.820;2023-02-23T09:28:01;9.80;99.90
46283;DHT22;32017;43.700;11.820;2023-02-23T09:30:21;9.70;99.90
46283;DHT22;32017;43.700;11.820;2023-02-23T09:32:52;9.70;99.90
46283;DHT22;32017;43.700;11.820;2023-02-23T09:35:14;9.80;99.90
46283;DHT22;32017;43.700;11.820;2023-02-23T09:37:37;9.90;99.90
46283;DHT22;32017;43.700;11.820;2023-02-23T09:39:57;10.10;99.90
46283;DHT22;32017;43.700;11.820;2023-02-23T09:50:22;10.80;99.90
46283;DHT22;32017;43.700;11.820;2023-02-23T09:52:51;10.70;99.90
46283;DHT22;32017;43.700;11.820;2023-02-23T09:55:12;10.90;99.90
46283;DHT22;32017;43.700;11.820;2023-02-23T09:57:39;11.30;99.90
46283;DHT22;32017;43.700;11.820;2023-02-23T09:59:59;11.30;99.90
46283;DHT22;32017;43.700;11.820;2023-02-23T10:04:54;11.40;99.90
46283;DHT22;32017;43.700;11.820;2023-02-23T10:23:35;12.00;99.90
46283;DHT22;32017;43.700;11.820;2023-02-23T10:25:57;12.20;99.90
46283;DHT22;32017;43.700;11.820;2023-02-23T10:28:20;12.40;99.90
46283;DHT22;32017;43.700;11.820;2023-02-23T10:30:43;12.30;99.90
46283;DHT22;32017;43.700;11.820;2023-02-23T10:33:14;12.30;99.90
46283;DHT22;32017;43.700;11.820;2023-02-23T10:35:36;12.90;99.90
46283;DHT22;32017;43.700;11.820;2023-02-23T10:37:59;12.50;99.90
46283;DHT22;32017;43.700;11.820;2023-02-23T10:40:25;12.00;99.90
46283;DHT22;32017;43.700;11.820;2023-02-23T10:42:51;12.10;99.90
46283;DHT22;32017;43.700;11.820;2023-02-23T10:45:16;12.20;99.90
46283;DHT22;32017;43.700;11.820;2023-02-23T10:47:41;12.30;99.90
46283;DHT22;32017;43.700;11.820;2023-02-23T10:50:02;13.10;99.90
46283;DHT22;32017;43.700;11.820;2023-02-23T10:52:41;13.00;99.90
46283;DHT22;32017;43.700;11.820;2023-02-23T10:55:06;12.70;99.90
46283;DHT22;32017;43.700;11.820;2023-02-23T10:57:30;12.80;99.90
46283;DHT22;32017;43.700;11.820;2023-02-23T11:02:29;12.80;99.90
46283;DHT22;32017;43.700;11.820;2023-02-23T11:04:51;12.80;99.90
46283;DHT22;32017;43.700;11.820;2023-02-23T11:07:27;12.60;99.90
46283;DHT22;32017;43.700;11.820;2023-02-23T11:09:51;12.80;99.90
46283;DHT22;32017;43.700;11.820;2023-02-23T11:12:19;12.80;99.90
46283;DHT22;32017;43.700;11.820;2023-02-23T11:14:41;12.80;99.90
46283;DHT22;32017;43.700;11.820;2023-02-23T11:17:02;12.50;99.90
46283;DHT22;32017;43.700;11.820;2023-02-23T11:19:33;12.70;99.90
46283;DHT22;32017;43.700;11.820;2023-02-23T11:21:53;13.10;99.90
46283;DHT22;32017;43.700;11.820;2023-02-23T11:24:28;13.00;99.90
46283;DHT22;32017;43.700;11.820;2023-02-23T11:26:55;13.10;99.90
46283;DHT22;32017;43.700;11.820;2023-02-23T11:29:32;13.40;99.90
46283;DHT22;32017;43.700;11.820;2023-02-23T11:31:56;13.00;99.90
46283;DHT22;32017;43.700;11.820;2023-02-23T11:34:31;12.80;99.90
46283;DHT22;32017;43.700;11.820;2023-02-23T11:37:05;12.90;99.90
46283;DHT22;32017;43.700;11.820;2023-02-23T11:39:25;13.20;99.90
46283;DHT22;32017;43.700;11.820;2023-02-23T11:41:45;13.00;99.90
46283;DHT22;32017;43.700;11.820;2023-02-23T11:44:05;13.10;99.90
46283;DHT22;32017;43.700;11.820;2023-02-23T11:46:27;13.00;99.90
46283;DHT22;32017;43.700;11.820;2023-02-23T11:49:06;12.90;99.90
46283;DHT22;32017;43.700;11.820;2023-02-23T11:53:52;13.30;99.90
46283;DHT22;32017;43.700;11.820;2023-02-23T11:56:19;13.00;99.90
46283;DHT22;32017;43.700;11.820;2023-02-23T11:58:47;13.00;99.90
46283;DHT22;32017;43.700;11.820;2023-02-23T12:01:10;13.10;99.90
46283;DHT22;32017;43.700;11.820;2023-02-23T12:03:33;13.50;99.90
46283;DHT22;32017;43.700;11.820;2023-02-23T12:05:55;13.70;99.90
46283;DHT22;32017;43.700;11.820;2023-02-23T12:10:50;13.10;99.90
46283;DHT22;32017;43.700;11.820;2023-02-23T12:13:39;12.90;99.90
46283;DHT22;32017;43.700;11.820;2023-02-23T12:16:03;13.30;99.90
46283;DHT22;32017;43.700;11.820;2023-02-23T12:19:08;13.10;99.90
46283;DHT22;32017;43.700;11.820;2023-02-23T12:21:36;13.20;99.90
46283;DHT22;32017;43.700;11.820;2023-02-23T12:26:53;13.10;99.90
46283;DHT22;32017;43.700;11.820;2023-02-23T12:31:56;13.50;99.90
46283;DHT22;32017;43.700;11.820;2023-02-23T12:34:41;13.50;99.90
46283;DHT22;32017;43.700;11.820;2023-02-23T12:37:33;13.70;99.90
46283;DHT22;32017;43.700;11.820;2023-02-23T12:40:02;13.50;99.90
46283;DHT22;32017;43.700;11.820;2023-02-23T12:44:57;13.90;99.90
46283;DHT22;32017;43.700;11.820;2023-02-23T12:50:23;13.70;99.90
46283;DHT22;32017;43.700;11.820;2023-02-23T12:52:35;14.00;99.90
46283;DHT22;32017;43.700;11.820;2023-02-23T12:54:57;13.70;99.90
46283;DHT22;32017;43.700;11.820;2023-02-23T12:57:33;13.70;99.90
46283;DHT22;32017;43.700;11.820;2023-02-23T13:02:51;13.70;99.90
46283;DHT22;32017;43.700;11.820;2023-02-23T13:05:32;13.40;99.90
46283;DHT22;32017;43.700;11.820;2023-02-23T13:16:18;14.20;99.90
46283;DHT22;32017;43.700;11.820;2023-02-23T13:19:28;13.70;99.90
46283;DHT22;32017;43.700;11.820;2023-02-23T13:24:44;13.70;99.90
46283;DHT22;32017;43.700;11.820;2023-02-23T13:27:17;13.60;99.90
46283;DHT22;32017;43.700;11.820;2023-02-23T13:29:44;13.60;99.90
46283;DHT22;32017;43.700;11.820;2023-02-23T13:32:11;13.50;99.90
46283;DHT22;32017;43.700;11.820;2023-02-23T13:34:35;13.70;99.90
46283;DHT22;32017;43.700;11.820;2023-02-23T13:36:59;13.60;99.90
46283;DHT22;32017;43.700;11.820;2023-02-23T13:39:30;13.20;99.90
46283;DHT22;32017;43.700;11.820;2023-02-23T13:42:16;13.10;99.90
46283;DHT22;32017;43.700;11.820;2023-02-23T13:52:44;13.30;99.90
46283;DHT22;32017;43.700;11.820;2023-02-23T13:55:46;13.40;99.90
46283;DHT22;32017;43.700;11.820;2023-02-23T13:58:13;13.10;99.90
46283;DHT22;32017;43.700;11.820;2023-02-23T14:00:34;13.10;99.90
46283;DHT22;32017;43.700;11.820;2023-02-23T14:02:55;13.10;99.90
46283;DHT22;32017;43.700;11.820;2023-02-23T14:05:21;13.10;99.90
46283;DHT22;32017;43.700;11.820;2023-02-23T14:07:47;13.00;99.90
46283;DHT22;32017;43.700;11.820;2023-02-23T14:10:13;13.00;99.90
46283;DHT22;32017;43.700;11.820;2023-02-23T14:12:39;13.00;99.90
46283;DHT22;32017;43.700;11.820;2023-02-23T14:20:20;13.00;99.90
46283;DHT22;32017;43.700;11.820;2023-02-23T14:23:14;13.00;99.90
46283;DHT22;32017;43.700;11.820;2023-02-23T14:28:02;13.10;99.90
46283;DHT22;32017;43.700;11.820;2023-02-23T14:30:27;13.10;99.90
46283;DHT22;32017;43.700;11.820;2023-02-23T14:32:48;13.10;99.90
46283;DHT22;32017;43.700;11.820;2023-02-23T14:37:58;13.20;99.90
46283;DHT22;32017;43.700;11.820;2023-02-23T14:40:23;13.20;99.90
46283;DHT22;32017;43.700;11.820;2023-02-23T14:42:55;13.20;99.90
46283;DHT22;32017;43.700;11.820;2023-02-23T14:47:46;13.00;99.90
46283;DHT22;32017;43.700;11.820;2023-02-23T14:50:10;12.90;99.90
46283;DHT22;32017;43.700;11.820;2023-02-23T14:52:39;12.90;99.90
46283;DHT22;32017;43.700;11.820;2023-02-23T14:57:35;13.00;99.90
46283;DHT22;32017;43.700;11.820;2023-02-23T14:59:57;13.00;99.90
46283;DHT22;32017;43.700;11.820;2023-02-23T15:02:21;12.90;99.90
46283;DHT22;32017;43.700;11.820;2023-02-23T15:04:42;12.90;99.90
46283;DHT22;32017;43.700;11.820;2023-02-23T15:07:04;12.90;99.90
46283;DHT22;32017;43.700;11.820;2023-02-23T15:09:37;12.90;99.90
46283;DHT22;32017;43.700;11.820;2023-02-23T15:12:06;12.80;99.90
46283;DHT22;32017;43.700;11.820;2023-02-23T15:14:31;12.80;99.90
46283;DHT22;32017;43.700;11.820;2023-02-23T15:16:55;12.70;99.90
46283;DHT22;32017;43.700;11.820;2023-02-23T15:19:18;12.60;99.90
46283;DHT22;32017;43.700;11.820;2023-02-23T15:21:49;12.60;99.90
46283;DHT22;32017;43.700;11.820;2023-02-23T15:24:12;12.60;99.90
46283;DHT22;32017;43.700;11.820;2023-02-23T15:26:34;12.60;99.90
46283;DHT22;32017;43.700;11.820;2023-02-23T15:28:54;12.50;99.90
46283;DHT22;32017;43.700;11.820;2023-02-23T15:31:29;12.50;99.90
46283;DHT22;32017;43.700;11.820;2023-02-23T15:33:50;12.60;99.90
46283;DHT22;32017;43.700;11.820;2023-02-23T15:36:26;12.50;99.90
46283;DHT22;32017;43.700;11.820;2023-02-23T15:38:50;12.40;99.90
46283;DHT22;32017;43.700;11.820;2023-02-23T15:41:21;12.30;99.90
46283;DHT22;32017;43.700;11.820;2023-02-23T15:43:43;12.30;99.90
46283;DHT22;32017;43.700;11.820;2023-02-23T15:46:04;12.30;99.90
46283;DHT22;32017;43.700;11.820;2023-02-23T15:48:27;12.20;99.90
46283;DHT22;32017;43.700;11.820;2023-02-23T15:50:56;12.20;99.90
46283;DHT22;32017;43.700;11.820;2023-02-23T15:53:29;12.20;99.90
46283;DHT22;32017;43.700;11.820;2023-02-23T15:55:55;12.20;99.90
46283;DHT22;32017;43.700;11.820;2023-02-23T15:58:28;12.10;99.90
46283;DHT22;32017;43.700;11.820;2023-02-23T16:01:06;12.20;99.90
46283;DHT22;32017;43.700;11.820;2023-02-23T16:03:45;12.10;99.90
46283;DHT22;32017;43.700;11.820;2023-02-23T16:06:51;12.10;99.90
46283;DHT22;32017;43.700;11.820;2023-02-23T16:11:43;12.00;99.90
46283;DHT22;32017;43.700;11.820;2023-02-23T16:14:03;12.00;99.90
46283;DHT22;32017;43.700;11.820;2023-02-23T16:16:26;11.90;99.90
46283;DHT22;32017;43.700;11.820;2023-02-23T16:18:51;11.90;99.90
46283;DHT22;32017;43.700;11.820;2023-02-23T16:21:22;11.90;99.90
46283;DHT22;32017;43.700;11.820;2023-02-23T16:23:45;11.80;99.90
46283;DHT22;32017;43.700;11.820;2023-02-23T16:26:21;11.80;99.90
46283;DHT22;32017;43.700;11.820;2023-02-23T16:28:44;11.80;99.90
46283;DHT22;32017;43.700;11.820;2023-02-23T16:31:07;11.70;99.90
46283;DHT22;32017;43.700;11.820;2023-02-23T16:33:29;11.60;99.90
46283;DHT22;32017;43.700;11.820;2023-02-23T16:35:53;11.50;99.90
46283;DHT22;32017;43.700;11.820;2023-02-23T16:38:39;11.50;99.90
46283;DHT22;32017;43.700;11.820;2023-02-23T16:41:03;11.50;99.90
46283;DHT22;32017;43.700;11.820;2023-02-23T16:43:23;11.50;99.90
46283;DHT22;32017;43.700;11.820;2023-02-23T16:45:43;11.40;99.90
46283;DHT22;32017;43.700;11.820;2023-02-23T16:48:03;11.30;99.90
46283;DHT22;32017;43.700;11.820;2023-02-23T16:50:29;11.30;99.90
46283;DHT22;32017;43.700;11.820;2023-02-23T16:52:52;11.10;99.90
46283;DHT22;32017;43.700;11.820;2023-02-23T16:55:13;11.10;99.90
46283;DHT22;32017;43.700;11.820;2023-02-23T16:57:39;10.90;99.90
46283;DHT22;32017;43.700;11.820;2023-02-23T17:00:00;10.90;99.90
46283;DHT22;32017;43.700;11.820;2023-02-23T17:02:22;10.80;99.90
46283;DHT22;32017;43.700;11.820;2023-02-23T17:04:43;10.70;99.90
46283;DHT22;32017;43.700;11.820;2023-02-23T17:07:07;10.60;99.90
46283;DHT22;32017;43.700;11.820;2023-02-23T17:09:27;10.50;99.90
46283;DHT22;32017;43.700;11.820;2023-02-23T17:11:47;10.50;99.90
46283;DHT22;32017;43.700;11.820;2023-02-23T17:14:07;10.50;99.90
46283;DHT22;32017;43.700;11.820;2023-02-23T17:16:26;10.40;99.90
46283;DHT22;32017;43.700;11.820;2023-02-23T17:18:46;10.40;99.90
46283;DHT22;32017;43.700;11.820;2023-02-23T17:21:11;10.40;99.90
46283;DHT22;32017;43.700;11.820;2023-02-23T17:23:32;10.30;99.90
46283;DHT22;32017;43.700;11.820;2023-02-23T17:26:09;10.30;99.90